Погода Шакпакна неделю

Южно-Казахстанская область, Казахстан

25 - 31 июля
  • 25июля
    Сегодня
    +23°
    +39°
    Ясно и безоблачно
    ВремяПогодаТемператураВлажностьДавлениеВетер, м/сВероятность осадков
    02:00Ясно и безоблачно+27°C31 %717 мм3.5 м/с2 %
    05:00Ясно и безоблачно+25°C35 %718 мм3.3 м/с2 %
    08:00Ясно и безоблачно+30°C35 %718 мм2.0 м/с2 %
    11:00Ясно и безоблачно+37°C21 %719 мм1.9 м/с2 %
    14:00Ясно и безоблачно+39°C17 %718 мм2.6 м/с2 %
    17:00Ясно и безоблачно+39°C16 %718 мм2.7 м/с2 %
    20:00Ясно и безоблачно+32°C29 %718 мм1.5 м/с2 %
    23:00Ясно и безоблачно+27°C35 %718 мм2.1 м/с2 %
  • 26июля
    Пятница
    +25°
    +39°
    Ясно и безоблачно
    ВремяПогодаТемператураВлажностьДавлениеВетер, м/сВероятность осадков
    02:00Ясно и безоблачно+26°C35 %717 мм2.8 м/с2 %
    05:00Ясно и безоблачно+24°C37 %717 мм2.2 м/с2 %
    08:00Ясно и безоблачно+30°C32 %720 мм1.9 м/с2 %
    11:00Ясно и безоблачно+37°C21 %720 мм3.0 м/с2 %
    14:00Ясно и безоблачно+39°C17 %720 мм3.9 м/с2 %
    17:00Ясно и безоблачно+37°C19 %720 мм4.3 м/с2 %
    20:00Ясно и безоблачно+33°C28 %721 мм3.6 м/с2 %
    23:00Ясно и безоблачно+27°C33 %722 мм2.2 м/с2 %
  • 27июля
    Суббота
    +26°
    +39°
    Ясно и безоблачно
    ВремяПогодаТемператураВлажностьДавлениеВетер, м/сВероятность осадков
    02:00Ясно и безоблачно+27°C27 %722 мм4.5 м/с2 %
    05:00Ясно и безоблачно+26°C29 %723 мм5.0 м/с2 %
    08:00Ясно и безоблачно+30°C29 %724 мм4.7 м/с2 %
    11:00Ясно и безоблачно+35°C21 %723 мм3.9 м/с2 %
    14:00Ясно и безоблачно+38°C17 %723 мм2.5 м/с2 %
    17:00Ясно и безоблачно+38°C17 %722 мм2.5 м/с2 %
    20:00Ясно и безоблачно+33°C21 %722 мм4.0 м/с2 %
    23:00Ясно и безоблачно+29°C22 %722 мм4.7 м/с2 %
  • 28июля
    Воскресенье
    +24°
    +39°
    Ясно и безоблачно
    ВремяПогодаТемператураВлажностьДавлениеВетер, м/сВероятность осадков
    02:00Ясно и безоблачно+27°C21 %722 мм4.2 м/с2 %
    05:00Ясно и безоблачно+26°C22 %723 мм4.2 м/с2 %
    08:00Ясно и безоблачно+31°C21 %724 мм4.4 м/с2 %
    11:00Ясно и безоблачно+37°C16 %724 мм3.5 м/с2 %
    14:00Ясно и безоблачно+39°C15 %724 мм3.1 м/с2 %
    17:00Ясно и безоблачно+38°C15 %724 мм2.8 м/с2 %
    20:00Ясно и безоблачно+32°C19 %723 мм3.0 м/с2 %
    23:00Ясно и безоблачно+30°C18 %724 мм5.6 м/с2 %
  • 29июля
    Понедельник
    +23°
    +38°
    Ясно и безоблачно
    ВремяПогодаТемператураВлажностьДавлениеВетер, м/сВероятность осадков
    02:00Ясно и безоблачно+28°C21 %723 мм6.4 м/с2 %
    05:00Ясно и безоблачно+26°C21 %724 мм6.6 м/с2 %
    08:00Ясно и безоблачно+29°C21 %725 мм6.1 м/с2 %
    11:00Ясно и безоблачно+35°C16 %724 мм4.9 м/с2 %
    14:00Ясно и безоблачно+38°C15 %724 мм3.8 м/с2 %
    17:00Ясно и безоблачно+37°C15 %723 мм3.8 м/с2 %
    20:00Небольшая облачность+32°C16 %723 мм4.8 м/с2 %
    23:00Ясно и безоблачно+28°C17 %723 мм5.7 м/с2 %
Мы используем cookies
Соглашаюсь